Time;durP1;ratioP1;P1;durP2;ratioP2;P2;SDS_P1;SDS_P2;PMS_P1;PMS_P2;Temp;Humidity;BMP_temperature;BMP_pressure;BME280_temperature;BME280_humidity;BME280_pressure;Samples;Min_cycle;Max_cycle;Signal;HPM_P1;HPM_P2
2022/05/09 00:01:40;;;;;;;;;;;;;;;9.38;53.27;101048.80;1703338;83;20187;-56
2022/05/09 00:04:45;;;;;;;;;;;;;;;9.33;53.26;101049.76;1726672;82;20292;-57
2022/05/09 00:07:50;;;;;;;;;;;;;;;9.31;53.30;101055.88;1719937;82;20218;-57
2022/05/09 00:10:55;;;;;;;;;;;;;;;9.36;53.59;101050.81;1719808;83;20230;-58
2022/05/09 00:14:02;;;;;;;;;;;;;;;9.43;53.82;101049.21;1718412;82;20202;-58
2022/05/09 00:17:02;;;;;;;;;;;;;;;9.53;53.97;101047.78;1719040;83;20242;-57
2022/05/09 00:20:08;;;;;;;;;;;;;;;9.61;54.06;101047.88;1726559;83;20189;-58
2022/05/09 00:23:14;;;;;;;;;;;;;;;9.68;54.10;101046.23;1719698;82;20254;-58
2022/05/09 00:26:18;;;;;;;;;;;;;;;9.76;54.12;101041.73;1719484;83;20487;-59
2022/05/09 00:29:24;;;;;;;;;;;;;;;9.82;54.20;101031.53;1719862;82;20210;-57
2022/05/09 00:32:30;;;;;;;;;;;;;;;9.91;54.23;101038.80;1720116;83;20210;-57
2022/05/09 00:35:35;;;;;;;;;;;;;;;10.00;54.29;101031.55;1726316;83;20237;-57
2022/05/09 00:38:39;;;;;;;;;;;;;;;10.10;54.33;101038.67;1717277;80;20491;-58
2022/05/09 00:41:43;;;;;;;;;;;;;;;10.22;54.35;101031.09;1714027;83;20250;-56
2022/05/09 00:44:47;;;;;;;;;;;;;;;10.30;54.36;101029.30;1659736;85;20186;-57
2022/05/09 00:47:52;;;;;;;;;;;;;;;10.38;54.36;101021.16;1714162;82;20210;-57
2022/05/09 00:50:57;;;;;;;;;;;;;;;10.46;54.30;101026.66;1659577;85;20195;-57
2022/05/09 00:54:02;;;;;;;;;;;;;;;10.51;54.30;101024.31;1714244;82;20561;-58
2022/05/09 00:57:10;;;;;;;;;;;;;;;10.56;54.30;101015.12;1648989;86;20199;-57
2022/05/09 01:00:18;;;;;;;;;;;;;;;10.59;54.32;101013.42;1679018;85;20258;-56
2022/05/09 01:03:37;;;;;;;;;;;;;;;10.63;54.28;101014.47;1679811;84;20210;-58
2022/05/09 01:06:41;;;;;;;;;;;;;;;10.63;54.23;101005.75;1677648;85;20211;-58
2022/05/09 01:09:46;;;;;;;;;;;;;;;10.65;54.19;101004.22;1679975;84;20223;-57
2022/05/09 01:12:51;;;;;;;;;;;;;;;10.69;54.22;101003.73;1677561;84;20203;-57
2022/05/09 01:15:58;;;;;;;;;;;;;;;10.70;54.22;100993.65;1680257;85;20262;-58
2022/05/09 01:19:07;;;;;;;;;;;;;;;10.71;54.18;100999.46;1680272;84;20194;-56
2022/05/09 01:22:14;;;;;;;;;;;;;;;10.72;54.14;100997.93;1679815;85;20187;-56
2022/05/09 01:25:20;;;;;;;;;;;;;;;10.74;54.12;101000.50;1677341;85;20219;-57
2022/05/09 01:28:24;;;;;;;;;;;;;;;10.79;54.16;100998.14;1680389;84;20535;-57
2022/05/09 01:31:30;;;;;;;;;;;;;;;10.85;54.23;100985.16;1678388;85;20526;-57
2022/05/09 01:34:35;;;;;;;;;;;;;;;10.88;54.24;100984.33;1660289;85;20274;-57
2022/05/09 01:37:42;;;;;;;;;;;;;;;10.90;54.17;100982.30;1660599;85;20531;-56
2022/05/09 01:40:46;;;;;;;;;;;;;;;10.90;54.12;100987.77;1718543;82;20530;-56
2022/05/09 01:43:59;;;;;;;;;;;;;;;10.93;54.09;100985.20;1726603;82;20217;-58
2022/05/09 01:50:24;;;;;;;;;;;;;;;10.97;54.14;100975.16;1719498;83;20202;-57
2022/05/09 01:53:29;;;;;;;;;;;;;;;11.00;54.15;100976.20;1719704;82;20455;-57
2022/05/09 01:56:36;;;;;;;;;;;;;;;11.03;54.13;100973.13;1719524;83;20206;-58
2022/05/09 01:59:42;;;;;;;;;;;;;;;11.04;54.05;100972.59;1726449;82;20206;-58
2022/05/09 02:02:48;;;;;;;;;;;;;;;11.05;54.03;100964.20;1719746;82;20218;-58
2022/05/09 02:05:51;;;;;;;;;;;;;;;11.07;54.02;100967.64;1719692;83;20186;-58
2022/05/09 02:08:56;;;;;;;;;;;;;;;11.09;54.05;100966.98;1719413;82;20554;-57
2022/05/09 02:12:02;;;;;;;;;;;;;;;11.11;54.04;100969.05;1719326;83;20229;-57
2022/05/09 02:15:08;;;;;;;;;;;;;;;11.13;54.03;100978.48;1682049;85;20205;-58
2022/05/09 02:18:13;;;;;;;;;;;;;;;11.13;54.04;100974.37;1694681;83;20194;-56
2022/05/09 02:21:19;;;;;;;;;;;;;;;11.14;54.03;100973.33;1696034;84;20238;-57
2022/05/09 02:24:23;;;;;;;;;;;;;;;11.16;54.01;100969.39;1719402;82;20241;-58
2022/05/09 02:27:28;;;;;;;;;;;;;;;11.17;54.00;100974.37;1726856;82;20205;-57
2022/05/09 02:30:33;;;;;;;;;;;;;;;11.19;54.02;100970.95;1719457;83;20194;-58
2022/05/09 02:33:38;;;;;;;;;;;;;;;11.21;54.04;100967.55;1718866;82;20226;-58
2022/05/09 02:36:43;;;;;;;;;;;;;;;11.21;54.04;100977.98;1718002;83;20242;-57
2022/05/09 02:39:48;;;;;;;;;;;;;;;11.20;54.05;100969.92;1718928;82;20210;-57
2022/05/09 02:42:53;;;;;;;;;;;;;;;11.20;54.04;100976.77;1713956;82;20198;-58
2022/05/09 02:46:03;;;;;;;;;;;;;;;11.21;54.06;100974.40;1658561;85;20231;-57
2022/05/09 02:49:07;;;;;;;;;;;;;;;11.25;54.10;100977.14;1713950;82;20198;-57
2022/05/09 02:52:14;;;;;;;;;;;;;;;11.26;54.09;100985.20;1659130;85;20539;-58
2022/05/09 02:55:20;;;;;;;;;;;;;;;11.27;54.07;100980.58;1713773;83;20558;-58
2022/05/09 02:58:25;;;;;;;;;;;;;;;11.27;54.11;100973.73;1658086;85;20199;-58
2022/05/09 03:01:30;;;;;;;;;;;;;;;11.29;54.12;100978.55;1677717;84;20663;-58
2022/05/09 03:04:41;;;;;;;;;;;;;;;11.31;54.12;100986.06;1679237;85;20531;-57
2022/05/09 03:07:46;;;;;;;;;;;;;;;11.34;54.18;100988.47;1677446;84;20214;-56
2022/05/09 03:10:51;;;;;;;;;;;;;;;11.39;54.18;100991.08;1661635;85;20299;-56
2022/05/09 03:13:56;;;;;;;;;;;;;;;11.42;54.17;100991.23;1714028;82;20226;-58
2022/05/09 03:17:04;;;;;;;;;;;;;;;11.45;54.16;100985.42;1658879;85;20247;-59
2022/05/09 03:20:10;;;;;;;;;;;;;;;11.49;54.17;100990.94;1697947;83;20530;-57
2022/05/09 03:23:17;;;;;;;;;;;;;;;11.53;54.19;100985.45;1658554;85;20207;-58
2022/05/09 03:26:20;;;;;;;;;;;;;;;11.57;54.20;100994.56;1714071;83;20558;-59
2022/05/09 03:29:27;;;;;;;;;;;;;;;11.63;54.22;100978.84;1696573;83;20258;-59
2022/05/09 03:32:31;;;;;;;;;;;;;;;11.72;54.24;100975.08;1685828;85;20567;-58
2022/05/09 03:35:35;;;;;;;;;;;;;;;11.82;54.25;100977.67;1631143;87;20199;-59
2022/05/09 03:38:39;;;;;;;;;;;;;;;11.89;54.21;100978.72;1685277;84;20216;-59
2022/05/09 03:41:46;;;;;;;;;;;;;;;11.95;54.19;100982.15;1638057;83;20208;-57
2022/05/09 03:44:51;;;;;;;;;;;;;;;12.02;54.21;100990.02;1649542;86;20256;-56
2022/05/09 03:47:57;;;;;;;;;;;;;;;12.07;54.23;100990.38;1648244;85;20256;-59
2022/05/09 03:51:01;;;;;;;;;;;;;;;12.14;54.23;100995.54;1631357;86;20228;-60
2022/05/09 03:54:07;;;;;;;;;;;;;;;12.23;54.29;100995.88;1648323;86;20221;-60
2022/05/09 03:57:13;;;;;;;;;;;;;;;12.36;54.36;100998.97;1649893;86;20193;-60
2022/05/09 04:00:18;;;;;;;;;;;;;;;12.52;54.37;100998.96;1649519;87;20205;-58
2022/05/09 04:03:22;;;;;;;;;;;;;;;12.68;54.37;101000.82;1649668;85;20221;-58
2022/05/09 04:06:28;;;;;;;;;;;;;;;12.83;54.39;100994.43;1647926;86;20556;-59
2022/05/09 04:09:32;;;;;;;;;;;;;;;12.97;54.38;101002.48;1649479;86;20577;-58
2022/05/09 04:12:37;;;;;;;;;;;;;;;13.10;54.41;100998.16;1649560;86;20312;-58
2022/05/09 04:19:06;;;;;;;;;;;;;;;13.37;54.41;100992.22;1622447;87;20188;-58
2022/05/09 04:22:13;;;;;;;;;;;;;;;13.50;54.42;100991.63;1649496;87;20265;-59
2022/05/09 04:25:19;;;;;;;;;;;;;;;13.60;54.46;100995.53;1665347;84;20218;-59
2022/05/09 04:28:26;;;;;;;;;;;;;;;13.67;54.47;101007.55;1676751;86;20214;-60
2022/05/09 04:31:31;;;;;;;;;;;;;;;13.72;54.48;100993.57;1676519;85;20374;-59
2022/05/09 04:34:37;;;;;;;;;;;;;;;13.76;54.47;101006.45;1676865;86;20550;-58
2022/05/09 04:37:45;;;;;;;;;;;;;;;13.78;54.49;101001.09;1676509;86;20318;-58
2022/05/09 04:40:51;;;;;;;;;;;;;;;13.81;54.54;100996.59;1676342;86;20227;-58
2022/05/09 04:43:57;;;;;;;;;;;;;;;13.86;54.59;100994.16;1681276;83;20226;-59
2022/05/09 04:47:01;;;;;;;;;;;;;;;13.91;54.63;100999.12;1681002;85;20279;-59
2022/05/09 04:50:06;;;;;;;;;;;;;;;13.97;54.63;101003.92;1680462;85;20562;-58
2022/05/09 04:53:11;;;;;;;;;;;;;;;14.02;54.64;101006.44;1670066;85;20254;-58
2022/05/09 04:56:12;;;;;;;;;;;;;;;14.05;54.61;101011.58;1664027;86;20218;-60
2022/05/09 04:59:23;;;;;;;;;;;;;;;14.08;54.62;101009.83;1657234;85;20215;-57
2022/05/09 05:02:27;;;;;;;;;;;;;;;14.10;54.65;101011.02;1680819;85;20226;-56
2022/05/09 05:05:34;;;;;;;;;;;;;;;14.13;54.63;101006.02;1681056;85;20424;-60
2022/05/09 05:08:40;;;;;;;;;;;;;;;14.21;54.67;101007.33;1681280;85;20574;-61
2022/05/09 05:11:49;;;;;;;;;;;;;;;14.31;54.70;101009.36;1679993;85;20272;-63
2022/05/09 05:14:56;;;;;;;;;;;;;;;14.41;54.67;101017.38;1664252;84;20202;-60
2022/05/09 05:18:05;;;;;;;;;;;;;;;14.49;54.67;101019.52;1680083;84;20479;-60
2022/05/09 05:21:16;;;;;;;;;;;;;;;14.61;54.73;101018.56;1680769;85;20222;-60
2022/05/09 05:24:21;;;;;;;;;;;;;;;14.75;54.77;101026.00;1652130;86;20562;-61
2022/05/09 05:27:29;;;;;;;;;;;;;;;14.88;54.81;101014.68;1671012;85;20245;-57
2022/05/09 05:30:35;;;;;;;;;;;;;;;15.06;54.91;101014.83;1679169;85;20258;-57
2022/05/09 05:33:38;;;;;;;;;;;;;;;15.23;54.94;101013.59;1677488;85;20563;-58
2022/05/09 05:36:43;;;;;;;;;;;;;;;15.44;55.01;101012.34;1679935;85;20226;-60
2022/05/09 05:39:48;;;;;;;;;;;;;;;15.69;55.07;101013.20;1675504;85;20606;-60
2022/05/09 05:42:54;;;;;;;;;;;;;;;16.01;55.17;101011.88;1655632;85;20218;-61
2022/05/09 05:46:03;;;;;;;;;;;;;;;16.40;55.30;101020.56;1714516;83;20313;-57
2022/05/09 05:49:11;;;;;;;;;;;;;;;16.77;55.34;101036.03;1714867;82;20630;-60
2022/05/09 05:52:18;;;;;;;;;;;;;;;17.02;55.34;101038.16;1714750;84;20226;-59
2022/05/09 05:55:27;;;;;;;;;;;;;;;17.14;55.30;101035.70;1714585;84;20205;-50
2022/05/09 05:58:31;;;;;;;;;;;;;;;17.22;55.23;101036.38;1693729;83;20206;-56
2022/05/09 06:01:36;;;;;;;;;;;;;;;17.26;55.17;101045.13;1681310;84;20632;-59
2022/05/09 06:04:42;;;;;;;;;;;;;;;17.26;55.13;101043.23;1723719;81;20210;-58
2022/05/09 06:07:48;;;;;;;;;;;;;;;17.26;55.13;101049.28;1713945;82;20514;-58
2022/05/09 06:10:53;;;;;;;;;;;;;;;17.32;55.17;101063.69;1712778;84;20210;-62
2022/05/09 06:14:00;;;;;;;;;;;;;;;17.38;55.16;101078.09;1713052;82;20202;-61
2022/05/09 06:17:07;;;;;;;;;;;;;;;17.37;55.13;101081.94;1712458;84;20221;-61
2022/05/09 06:20:16;;;;;;;;;;;;;;;17.30;55.12;101078.28;1712857;84;20317;-62
2022/05/09 06:23:20;;;;;;;;;;;;;;;17.20;55.14;101072.24;1689804;82;20214;-63
2022/05/09 06:26:28;;;;;;;;;;;;;;;17.09;55.14;101065.88;1713066;83;20254;-64
2022/05/09 06:29:33;;;;;;;;;;;;;;;17.02;55.22;101080.17;1714254;82;20434;-63
2022/05/09 06:32:41;;;;;;;;;;;;;;;16.90;55.27;101074.88;1714784;84;20237;-64
2022/05/09 06:35:50;;;;;;;;;;;;;;;16.73;55.29;101072.07;1686392;85;20204;-63
2022/05/09 06:38:56;;;;;;;;;;;;;;;16.56;55.41;101078.38;1700100;84;20411;-64
2022/05/09 06:42:01;;;;;;;;;;;;;;;16.47;55.55;101078.71;1712672;84;20254;-63
2022/05/09 06:45:05;;;;;;;;;;;;;;;16.38;55.66;101071.03;1715384;82;20218;-63
2022/05/09 06:48:10;;;;;;;;;;;;;;;16.36;55.83;101071.77;1723985;82;20206;-62
2022/05/09 06:51:15;;;;;;;;;;;;;;;16.39;55.92;101056.17;1717809;83;20558;-63
2022/05/09 06:54:22;;;;;;;;;;;;;;;16.44;55.99;101076.66;1725116;82;20207;-62
2022/05/09 06:57:27;;;;;;;;;;;;;;;16.53;55.99;101076.02;1718557;83;20212;-62
2022/05/09 07:00:34;;;;;;;;;;;;;;;16.60;55.98;101078.84;1728198;83;20205;-63
2022/05/09 07:03:41;;;;;;;;;;;;;;;16.65;56.01;101081.88;1716151;82;20503;-63
2022/05/09 07:06:48;;;;;;;;;;;;;;;16.75;56.08;101087.39;1718295;83;20220;-62
2022/05/09 07:09:55;;;;;;;;;;;;;;;16.86;56.14;101087.38;1717855;83;20210;-63
2022/05/09 07:13:04;;;;;;;;;;;;;;;16.97;56.16;101091.84;1716307;82;20614;-62
2022/05/09 07:16:08;;;;;;;;;;;;;;;17.15;56.27;101096.89;1729082;83;20209;-62
2022/05/09 07:19:16;;;;;;;;;;;;;;;17.36;56.33;101101.83;1729489;82;20348;-61
2022/05/09 07:22:22;;;;;;;;;;;;;;;17.49;56.44;101109.43;1724640;83;20576;-63
2022/05/09 07:25:28;;;;;;;;;;;;;;;17.51;56.44;101110.05;1702374;82;20220;-59
2022/05/09 07:28:34;;;;;;;;;;;;;;;17.43;56.47;101105.51;1724258;82;20534;-60
2022/05/09 07:31:44;;;;;;;;;;;;;;;17.32;56.54;101121.30;1689568;85;20206;-60
2022/05/09 07:34:51;;;;;;;;;;;;;;;17.17;56.63;101130.76;1694254;83;20254;-60
2022/05/09 07:37:57;;;;;;;;;;;;;;;16.97;56.75;101125.56;1693799;83;20253;-62
2022/05/09 07:41:03;;;;;;;;;;;;;;;16.78;56.89;101126.23;1696027;84;20567;-62
2022/05/09 07:44:08;;;;;;;;;;;;;;;16.55;56.98;101127.83;1717131;82;20265;-61
2022/05/09 07:47:16;;;;;;;;;;;;;;;16.29;57.14;101126.97;1714670;82;20222;-62
2022/05/09 07:50:22;;;;;;;;;;;;;;;16.08;57.33;101132.95;1714093;83;20202;-61
2022/05/09 07:53:33;;;;;;;;;;;;;;;15.93;57.57;101127.47;1713628;82;20206;-59
2022/05/09 07:56:39;;;;;;;;;;;;;;;15.81;57.78;101134.51;1714292;83;20226;-61
2022/05/09 07:59:44;;;;;;;;;;;;;;;15.81;58.04;101128.16;1713342;82;20478;-60
2022/05/09 08:02:52;;;;;;;;;;;;;;;15.88;58.22;101138.74;1713864;82;20236;-60
2022/05/09 08:05:58;;;;;;;;;;;;;;;15.96;58.33;101136.75;1713856;83;20682;-60
2022/05/09 08:09:05;;;;;;;;;;;;;;;16.07;58.44;101149.20;1714199;82;20261;-60
2022/05/09 08:12:12;;;;;;;;;;;;;;;16.25;58.51;101149.11;1715120;83;20578;-60
2022/05/09 08:15:20;;;;;;;;;;;;;;;16.53;58.69;101151.17;1714013;83;20206;-61
2022/05/09 08:18:26;;;;;;;;;;;;;;;16.87;58.77;101148.56;1714407;82;20210;-60
2022/05/09 08:21:33;;;;;;;;;;;;;;;17.15;58.73;101151.71;1707753;83;20246;-60
2022/05/09 08:24:38;;;;;;;;;;;;;;;17.28;58.57;101161.48;1657433;85;20575;-60
2022/05/09 08:27:44;;;;;;;;;;;;;;;17.36;58.55;101153.03;1713459;82;20657;-60
2022/05/09 08:30:52;;;;;;;;;;;;;;;17.49;58.55;101157.33;1713554;83;20570;-61
2022/05/09 08:33:59;;;;;;;;;;;;;;;17.54;58.59;101162.25;1657103;85;20560;-59
2022/05/09 08:37:04;;;;;;;;;;;;;;;17.33;58.48;101171.98;1710703;83;20212;-60
2022/05/09 08:40:10;;;;;;;;;;;;;;;17.08;58.56;101166.52;1664831;85;20219;-60
2022/05/09 08:43:40;;;;;;;;;;;;;;;16.92;58.67;101154.38;1674932;84;20215;-59
2022/05/09 08:47:06;;;;;;;;;;;;;;;16.88;58.86;101158.05;1660955;84;20222;-60
2022/05/09 08:50:39;;;;;;;;;;;;;;;16.92;59.03;101172.34;1644248;87;20257;-60
2022/05/09 08:53:46;;;;;;;;;;;;;;;16.96;59.02;101168.98;1662310;85;20228;-59
2022/05/09 08:57:06;;;;;;;;;;;;;;;17.04;59.16;101158.30;1666313;85;20559;-60
2022/05/09 09:00:20;;;;;;;;;;;;;;;17.15;59.19;101162.78;1684882;85;20583;-59
2022/05/09 09:03:39;;;;;;;;;;;;;;;17.01;58.89;101180.84;1689958;83;20218;-59
2022/05/09 09:06:56;;;;;;;;;;;;;;;16.70;58.75;101181.69;1685033;85;20202;-59
2022/05/09 09:10:15;;;;;;;;;;;;;;;16.56;58.84;101182.05;1715601;82;20257;-60
2022/05/09 09:13:44;;;;;;;;;;;;;;;16.74;59.05;101185.25;1716570;82;20241;-59
2022/05/09 09:16:58;;;;;;;;;;;;;;;16.84;58.93;101183.54;1716057;83;20489;-59
2022/05/09 09:20:07;;;;;;;;;;;;;;;16.79;58.83;101197.09;1716289;82;20403;-59
2022/05/09 09:23:45;;;;;;;;;;;;;;;16.68;58.89;101203.98;1715618;82;20516;-59
2022/05/09 09:26:56;;;;;;;;;;;;;;;16.79;59.07;101192.40;1688007;85;20226;-62
2022/05/09 09:30:10;;;;;;;;;;;;;;;17.03;59.04;101191.19;1715829;83;20205;-59
2022/05/09 09:33:16;;;;;;;;;;;;;;;16.95;58.91;101192.15;1717189;83;20593;-59
2022/05/09 09:36:21;;;;;;;;;;;;;;;16.95;58.93;101183.02;1718022;83;20206;-60
2022/05/09 09:39:27;;;;;;;;;;;;;;;17.06;58.96;101196.31;1691799;85;20197;-61
2022/05/09 09:42:34;;;;;;;;;;;;;;;17.22;59.00;101190.52;1682030;85;20214;-62
2022/05/09 09:45:54;;;;;;;;;;;;;;;17.36;58.94;101196.48;1665003;85;20214;-60
2022/05/09 09:49:10;;;;;;;;;;;;;;;17.42;58.88;101198.45;1658893;81;20563;-61
2022/05/09 09:52:31;;;;;;;;;;;;;;;17.68;58.98;101177.91;1655247;86;20220;-60
2022/05/09 09:55:39;;;;;;;;;;;;;;;18.05;58.86;101185.83;1722223;82;20216;-60
2022/05/09 09:58:43;;;;;;;;;;;;;;;18.34;58.68;101174.46;1674012;84;20554;-61
2022/05/09 10:01:55;;;;;;;;;;;;;;;18.67;58.56;101175.46;1655021;85;20294;-63
2022/05/09 10:05:04;;;;;;;;;;;;;;;18.83;58.24;101165.37;1641169;85;20526;-57
2022/05/09 10:08:35;;;;;;;;;;;;;;;18.83;58.04;101175.08;1674521;84;20569;-58
2022/05/09 10:11:40;;;;;;;;;;;;;;;18.65;57.78;101172.55;1639839;85;20608;-53
2022/05/09 10:14:48;;;;;;;;;;;;;;;18.42;57.69;101176.22;1647182;86;20645;-57
2022/05/09 10:17:54;;;;;;;;;;;;;;;18.23;57.66;101177.83;1707429;84;20206;-56
2022/05/09 10:24:48;;;;;;;;;;;;;;;17.71;57.56;101185.28;1645114;84;20218;-55
2022/05/09 10:27:55;;;;;;;;;;;;;;;17.56;57.49;101185.07;1654856;84;20675;-55
2022/05/09 10:31:08;;;;;;;;;;;;;;;17.44;57.45;101186.66;1645101;85;20219;-56
2022/05/09 10:34:17;;;;;;;;;;;;;;;17.64;57.61;101181.63;1656188;85;20219;-54
2022/05/09 10:37:41;;;;;;;;;;;;;;;18.09;57.68;101175.19;1709830;83;20249;-57
2022/05/09 10:41:03;;;;;;;;;;;;;;;18.63;57.73;101176.92;1644400;87;20223;-56
2022/05/09 10:44:21;;;;;;;;;;;;;;;19.11;57.36;101171.59;1728504;81;20215;-54
2022/05/09 10:47:45;;;;;;;;;;;;;;;18.95;56.88;101183.09;1694826;83;20226;-56
2022/05/09 10:50:59;;;;;;;;;;;;;;;18.67;56.73;101181.01;1675051;85;20227;-55
2022/05/09 10:54:07;;;;;;;;;;;;;;;18.52;56.59;101182.25;1672879;85;20583;-57
2022/05/09 10:57:38;;;;;;;;;;;;;;;18.51;56.58;101176.35;1656719;85;20211;-59
2022/05/09 11:00:47;;;;;;;;;;;;;;;18.57;56.48;101173.61;1654502;85;20282;-54
2022/05/09 11:03:53;;;;;;;;;;;;;;;18.78;56.43;101189.25;1711451;83;20233;-56
2022/05/09 11:07:18;;;;;;;;;;;;;;;18.99;56.36;101183.53;1655134;85;20487;-57
2022/05/09 11:10:27;;;;;;;;;;;;;;;18.95;56.10;101176.68;1684316;85;20440;-57
2022/05/09 11:13:52;;;;;;;;;;;;;;;18.97;56.10;101168.48;1656661;85;20230;-57
2022/05/09 11:17:11;;;;;;;;;;;;;;;19.43;56.28;101181.56;1643198;85;20773;-58
2022/05/09 11:20:37;;;;;;;;;;;;;;;19.84;55.90;101160.80;1683382;85;20263;-56
2022/05/09 11:24:00;;;;;;;;;;;;;;;20.02;55.55;101169.31;1697996;82;20267;-59
2022/05/09 11:27:20;;;;;;;;;;;;;;;20.28;55.32;101161.45;1660962;85;20529;-57
2022/05/09 11:30:44;;;;;;;;;;;;;;;20.58;55.13;101154.25;1703847;84;20208;-56
2022/05/09 11:34:13;;;;;;;;;;;;;;;20.37;54.59;101176.81;1713372;82;20210;-56
2022/05/09 11:37:38;;;;;;;;;;;;;;;19.67;54.25;101159.55;1706322;82;20551;-57
2022/05/09 11:40:45;;;;;;;;;;;;;;;19.38;54.54;101172.48;1655010;86;20463;-57
2022/05/09 11:44:01;;;;;;;;;;;;;;;19.48;54.47;101177.61;1707341;82;20560;-56
2022/05/09 11:47:29;;;;;;;;;;;;;;;19.69;54.44;101163.50;1651260;86;20548;-61
2022/05/09 11:51:13;;;;;;;;;;;;;;;20.11;54.50;101154.61;1687353;82;20624;-59
2022/05/09 11:54:45;;;;;;;;;;;;;;;20.27;53.98;101163.89;1685859;84;20214;-61
2022/05/09 11:57:58;;;;;;;;;;;;;;;19.92;53.64;101161.09;1689663;83;20561;-60
2022/05/09 12:01:00;;;;;;;;;;;;;;;20.08;53.57;101167.56;1712803;82;20214;-61
2022/05/09 12:04:07;;;;;;;;;;;;;;;20.18;53.41;101161.05;1714395;82;20202;-59
2022/05/09 12:07:32;;;;;;;;;;;;;;;20.41;53.31;101173.89;1724019;82;20218;-61
2022/05/09 12:10:40;;;;;;;;;;;;;;;20.25;52.76;101164.64;1737927;82;20567;-59
2022/05/09 12:13:50;;;;;;;;;;;;;;;20.01;52.58;101169.53;1707376;82;20223;-61
2022/05/09 12:17:00;;;;;;;;;;;;;;;20.07;52.53;101168.65;1708787;83;20563;-58
2022/05/09 12:20:04;;;;;;;;;;;;;;;20.15;52.36;101159.55;1717747;82;20828;-60
2022/05/09 12:23:10;;;;;;;;;;;;;;;20.27;52.15;101166.16;1719639;81;20279;-60
2022/05/09 12:26:19;;;;;;;;;;;;;;;20.28;51.86;101171.19;1722168;82;20517;-61
2022/05/09 12:29:30;;;;;;;;;;;;;;;20.20;51.60;101168.09;1670844;85;20616;-60
2022/05/09 12:32:34;;;;;;;;;;;;;;;20.11;51.34;101159.65;1689264;85;20209;-60
2022/05/09 12:35:41;;;;;;;;;;;;;;;19.94;51.06;101158.95;1708144;82;20210;-59
2022/05/09 12:38:50;;;;;;;;;;;;;;;19.74;50.90;101163.15;1709252;82;20200;-60
2022/05/09 12:41:58;;;;;;;;;;;;;;;19.69;50.79;101156.55;1716605;82;20236;-60
2022/05/09 12:45:04;;;;;;;;;;;;;;;19.66;50.57;101162.55;1713468;82;20504;-60
2022/05/09 12:48:14;;;;;;;;;;;;;;;19.60;50.46;101150.91;1709073;82;20222;-59
2022/05/09 12:51:20;;;;;;;;;;;;;;;19.63;50.24;101179.09;1694014;83;20202;-59
2022/05/09 12:54:29;;;;;;;;;;;;;;;19.71;50.09;101162.75;1712471;82;20213;-60
2022/05/09 12:57:41;;;;;;;;;;;;;;;19.91;49.86;101154.70;1714785;82;20209;-62
2022/05/09 13:00:48;;;;;;;;;;;;;;;19.92;49.44;101144.41;1652920;85;20207;-61
2022/05/09 13:04:02;;;;;;;;;;;;;;;20.13;49.35;101136.66;1651410;85;20223;-60
2022/05/09 13:07:13;;;;;;;;;;;;;;;20.34;49.22;101157.78;1673324;85;20553;-60
2022/05/09 13:10:20;;;;;;;;;;;;;;;20.35;48.83;101132.53;1674254;85;20222;-60
2022/05/09 13:13:33;;;;;;;;;;;;;;;20.14;48.58;101144.47;1670959;82;20619;-61
2022/05/09 13:16:42;;;;;;;;;;;;;;;20.02;48.47;101149.85;1669297;85;20263;-59
2022/05/09 13:19:54;;;;;;;;;;;;;;;20.00;48.31;101157.55;1713828;82;20613;-59
2022/05/09 13:23:10;;;;;;;;;;;;;;;20.07;48.13;101143.62;1651337;85;20907;-59
2022/05/09 13:26:17;;;;;;;;;;;;;;;20.10;47.86;101164.91;1648381;87;20223;-63
2022/05/09 13:29:31;;;;;;;;;;;;;;;20.18;47.50;101152.19;1655902;85;20254;-61
2022/05/09 13:32:38;;;;;;;;;;;;;;;20.26;47.29;101146.91;1663562;86;20238;-60
2022/05/09 13:35:44;;;;;;;;;;;;;;;20.40;47.05;101140.20;1714290;82;20230;-62
2022/05/09 13:38:49;;;;;;;;;;;;;;;20.56;46.81;101141.09;1723112;82;20233;-60
2022/05/09 13:41:55;;;;;;;;;;;;;;;20.61;46.56;101149.06;1650106;85;20575;-60
2022/05/09 13:45:00;;;;;;;;;;;;;;;20.35;46.24;101138.62;1656898;85;20223;-59
2022/05/09 13:48:08;;;;;;;;;;;;;;;20.25;46.20;101147.96;1646634;85;20827;-61
2022/05/09 13:51:14;;;;;;;;;;;;;;;20.48;45.92;101139.43;1655037;81;20213;-60
2022/05/09 13:54:18;;;;;;;;;;;;;;;20.79;45.51;101137.19;1715212;82;20202;-59
2022/05/09 13:57:28;;;;;;;;;;;;;;;20.68;45.15;101151.29;1713689;84;20237;-57
2022/05/09 14:00:35;;;;;;;;;;;;;;;20.50;45.04;101164.24;1688938;84;20214;-58
2022/05/09 14:03:52;;;;;;;;;;;;;;;20.72;44.87;101133.62;1713432;82;20230;-55
2022/05/09 14:06:59;;;;;;;;;;;;;;;21.37;44.43;101139.25;1690534;84;20395;-60
2022/05/09 14:10:06;;;;;;;;;;;;;;;21.45;43.86;101130.08;1705812;84;20597;-57
2022/05/09 14:13:36;;;;;;;;;;;;;;;21.10;43.94;101134.98;1685400;84;20216;-56
2022/05/09 14:16:48;;;;;;;;;;;;;;;20.91;43.88;101136.81;1713867;84;20617;-59
2022/05/09 14:19:56;;;;;;;;;;;;;;;20.76;43.86;101134.86;1685445;84;20224;-61
2022/05/09 14:23:02;;;;;;;;;;;;;;;20.77;43.54;101143.55;1706475;82;20222;-57
2022/05/09 14:29:38;;;;;;;;;;;;;;;20.86;43.19;101155.25;1683789;84;20216;-61
2022/05/09 14:32:55;;;;;;;;;;;;;;;20.58;42.97;101145.91;1684392;84;20216;-59
2022/05/09 14:36:04;;;;;;;;;;;;;;;20.49;42.98;101143.05;1720816;82;20214;-62
2022/05/09 14:39:07;;;;;;;;;;;;;;;20.54;42.59;101139.06;1734497;81;20256;-61
2022/05/09 14:42:20;;;;;;;;;;;;;;;20.49;42.51;101133.30;1738731;82;20608;-57
2022/05/09 14:45:35;;;;;;;;;;;;;;;20.76;42.27;101144.08;1740636;82;20526;-59
2022/05/09 14:48:43;;;;;;;;;;;;;;;21.25;41.79;101140.53;1740077;81;20285;-62
2022/05/09 14:51:49;;;;;;;;;;;;;;;21.62;41.15;101142.88;1740362;82;20205;-61
2022/05/09 14:58:24;;;;;;;;;;;;;;;22.21;40.78;101145.34;1685160;83;20222;-60
2022/05/09 15:01:29;;;;;;;;;;;;;;;22.46;40.00;101142.47;1674896;84;20229;-59
2022/05/09 15:04:33;;;;;;;;;;;;;;;22.61;39.93;101142.92;1642579;86;20222;-59
2022/05/09 15:07:40;;;;;;;;;;;;;;;22.72;39.48;101142.11;1680505;84;20226;-58
2022/05/09 15:10:46;;;;;;;;;;;;;;;22.55;39.26;101148.05;1681820;85;20502;-59
2022/05/09 15:13:54;;;;;;;;;;;;;;;22.48;39.39;101154.79;1619482;88;20248;-59
2022/05/09 15:17:01;;;;;;;;;;;;;;;22.26;39.11;101158.62;1622384;88;20538;-58
2022/05/09 15:20:06;;;;;;;;;;;;;;;21.83;39.08;101154.50;1621295;87;20363;-59
2022/05/09 15:23:12;;;;;;;;;;;;;;;21.43;39.21;101148.09;1682031;84;20594;-60
2022/05/09 15:26:24;;;;;;;;;;;;;;;21.45;39.10;101149.59;1630257;87;20859;-59
2022/05/09 15:29:28;;;;;;;;;;;;;;;21.48;38.91;101145.48;1676939;84;20214;-59
2022/05/09 15:32:34;;;;;;;;;;;;;;;21.22;39.02;101157.69;1680836;85;20613;-59
2022/05/09 15:35:40;;;;;;;;;;;;;;;21.53;38.94;101147.88;1680948;85;20262;-61
2022/05/09 15:38:44;;;;;;;;;;;;;;;22.23;38.57;101150.16;1630144;87;20208;-59
2022/05/09 15:41:53;;;;;;;;;;;;;;;22.51;37.99;101148.73;1682122;85;20602;-59
2022/05/09 15:45:03;;;;;;;;;;;;;;;22.23;37.75;101152.94;1667996;85;20218;-57
2022/05/09 15:48:08;;;;;;;;;;;;;;;22.06;37.88;101152.40;1682578;84;20245;-60
2022/05/09 15:51:12;;;;;;;;;;;;;;;22.36;37.59;101163.65;1681303;85;20217;-59
2022/05/09 15:54:19;;;;;;;;;;;;;;;22.13;37.37;101164.34;1696668;83;20285;-59
2022/05/09 15:57:28;;;;;;;;;;;;;;;21.42;37.52;101156.15;1708869;84;20217;-59
2022/05/09 16:00:37;;;;;;;;;;;;;;;21.41;37.62;101158.07;1713497;82;20214;-59
2022/05/09 16:03:44;;;;;;;;;;;;;;;22.02;37.01;101157.58;1710698;82;20198;-61
2022/05/09 16:13:39;;;;;;;;;;;;;;;22.79;36.00;101171.34;1705882;82;20213;-60
2022/05/09 16:16:40;;;;;;;;;;;;;;;23.12;35.78;101170.34;1714216;82;20657;-60
2022/05/09 16:19:48;;;;;;;;;;;;;;;23.32;35.50;101175.09;1713312;82;20570;-61
2022/05/09 16:22:51;;;;;;;;;;;;;;;23.02;35.43;101177.03;1712491;82;20214;-61
2022/05/09 16:26:00;;;;;;;;;;;;;;;22.49;35.45;101187.17;1702401;84;20500;-61
2022/05/09 16:29:07;;;;;;;;;;;;;;;21.67;35.71;101189.89;1706029;83;20245;-60
2022/05/09 16:32:13;;;;;;;;;;;;;;;20.99;35.91;101192.26;1715476;84;20217;-60
2022/05/09 16:35:18;;;;;;;;;;;;;;;20.53;36.09;101192.45;1713594;84;20221;-62